Hestrud (Nord, France) - 208 m
Donnes mto: Actuelle samedi, 18/08/2018 12:53
Date Horaire Temp Out Temp. E. min Temp. E. max Temp. Sol 1 Hum Out Hum. Sol 1 Press Rain Wind Dir Dir Solar Ev.Tr. UV Hi Solar Rad Dew Point Windchill Wind (Gust)
18/08/2018 12:53 20,8 C 20,8 C 20,8 C 20,6 C 65 % 58 cb 1022,9 hPa 0,0 mm 11,3 km/h (2 Bft) S-SO 202 60 min 0,356 mm 3,9 UV-I 729 W/m 14,0 C 19,1 C 14,5 km/h (3 Bft)
18/08/2018 11:53 20,3 C 20,2 C 20,3 C 20,0 C 64 % 59 cb 1023,0 hPa 0,0 mm 6,4 km/h (2 Bft) O-NO 292 60 min 0,279 mm 4,2 UV-I 547 W/m 13,3 C 20,3 C 12,9 km/h (3 Bft)
18/08/2018 10:53 18,9 C 18,8 C 18,9 C 18,3 C 71 % 60 cb 1023,2 hPa 0,0 mm 11,3 km/h (2 Bft) SO 225 60 min 0,178 mm 3,2 UV-I 431 W/m 13,5 C 17,0 C 14,5 km/h (3 Bft)
18/08/2018 09:53 16,3 C 16,2 C 16,3 C 16,1 C 87 % 61 cb 1023,0 hPa 0,0 mm 6,4 km/h (2 Bft) SO 225 60 min 0,051 mm 2,0 UV-I 417 W/m 14,1 C 16,3 C 8,0 km/h (2 Bft)
18/08/2018 08:53 12,7 C 12,7 C 12,7 C 12,8 C 98 % 58 cb 1022,8 hPa 0,0 mm 9,7 km/h (2 Bft) SO 225 11 min 0,000 mm 0,8 UV-I 266 W/m 12,4 C 10,7 C 11,3 km/h (2 Bft)
18/08/2018 07:53 9,6 C 9,5 C 9,6 C 10,6 C 98 % 55 cb 1022,5 hPa 0,0 mm 0,0 km/h (0 Bft) N 0 0 min 0,000 mm 0,0 UV-I 32 W/m 9,3 C 9,6 C 0,0 km/h (0 Bft)
18/08/2018 06:53 8,2 C 8,2 C 8,3 C 8,9 C 95 % 52 cb 1022,3 hPa 0,0 mm 0,0 km/h (0 Bft) N 0 0 min 0,000 mm 0,0 UV-I 11 W/m 7,4 C 8,2 C 0,0 km/h (0 Bft)
18/08/2018 05:53 8,7 C 8,7 C 8,7 C 9,4 C 94 % 51 cb 1022,1 hPa 0,0 mm 0,0 km/h (0 Bft) N 0 0 min 0,000 mm 0,0 UV-I 0 W/m 7,8 C 8,7 C 0,0 km/h (0 Bft)
18/08/2018 04:53 9,3 C 9,3 C 9,3 C 9,4 C 94 % 50 cb 1022,2 hPa 0,0 mm 0,0 km/h (0 Bft) N 0 0 min 0,000 mm 0,0 UV-I 0 W/m 8,4 C 9,3 C 0,0 km/h (0 Bft)
18/08/2018 03:53 9,9 C 9,9 C 9,9 C 10,6 C 93 % 49 cb 1022,0 hPa 0,0 mm 0,0 km/h (0 Bft) N 0 0 min 0,000 mm 0,0 UV-I 0 W/m 8,8 C 9,9 C 0,0 km/h (0 Bft)
18/08/2018 02:53 10,6 C 10,6 C 10,6 C 11,1 C 92 % 47 cb 1021,9 hPa 0,0 mm 0,0 km/h (0 Bft) N 0 0 min 0,000 mm 0,0 UV-I 0 W/m 9,4 C 10,6 C 0,0 km/h (0 Bft)
18/08/2018 01:53 11,8 C 11,8 C 11,8 C 11,7 C 89 % 46 cb 1022,0 hPa 0,0 mm 0,0 km/h (0 Bft) N 0 0 min 0,025 mm 0,0 UV-I 0 W/m 10,0 C 11,8 C 0,0 km/h (0 Bft)
18/08/2018 00:53 13,7 C 13,7 C 13,7 C 12,8 C 83 % 44 cb 1021,8 hPa 0,0 mm 0,0 km/h (0 Bft) N 0 0 min 0,025 mm 0,0 UV-I 0 W/m 10,9 C 13,7 C 0,0 km/h (0 Bft)
17/08/2018 23:53 14,7 C 14,7 C 14,7 C 13,9 C 81 % 43 cb 1021,7 hPa 0,0 mm 1,6 km/h (1 Bft) O-NO 292 0 min 0,025 mm 0,0 UV-I 0 W/m 11,5 C 14,7 C 6,4 km/h (2 Bft)
17/08/2018 22:53 14,6 C 14,6 C 14,6 C 14,4 C 85 % 41 cb 1021,2 hPa 0,0 mm 3,2 km/h (1 Bft) O 270 0 min 0,000 mm 0,0 UV-I 0 W/m 12,1 C 14,6 C 11,3 km/h (2 Bft)
17/08/2018 21:53 15,6 C 15,6 C 15,6 C 15,0 C 79 % 39 cb 1020,6 hPa 0,0 mm 0,0 km/h (0 Bft) N 0 0 min 0,025 mm 0,0 UV-I 0 W/m 12,0 C 15,6 C 0,0 km/h (0 Bft)
17/08/2018 20:53 17,9 C 17,9 C 18,0 C 16,1 C 72 % 37 cb 1019,9 hPa 0,0 mm 1,6 km/h (1 Bft) NO 315 0 min 0,102 mm 0,0 UV-I 3 W/m 12,8 C 17,9 C 3,2 km/h (1 Bft)
17/08/2018 19:53 21,0 C 21,0 C 21,1 C 18,3 C 56 % 35 cb 1019,4 hPa 0,0 mm 4,8 km/h (1 Bft) O-NO 292 33 min 0,178 mm 0,0 UV-I 47 W/m 11,9 C 21,0 C 9,7 km/h (2 Bft)
17/08/2018 18:53 21,2 C 21,2 C 21,2 C 18,9 C 60 % 33 cb 1019,0 hPa 0,0 mm 4,8 km/h (1 Bft) N-NO 337 30 min 0,279 mm 0,5 UV-I 95 W/m 13,1 C 21,2 C 9,7 km/h (2 Bft)
17/08/2018 17:53 22,1 C 22,0 C 22,1 C 19,4 C 55 % 31 cb 1018,8 hPa 0,0 mm 4,8 km/h (1 Bft) N-NO 337 46 min 0,305 mm 1,5 UV-I 461 W/m 12,6 C 22,1 C 8,0 km/h (2 Bft)
17/08/2018 16:53 22,0 C 22,0 C 22,0 C 20,0 C 57 % 28 cb 1018,9 hPa 0,0 mm 9,7 km/h (2 Bft) N-NE 22 60 min 0,305 mm 2,0 UV-I 214 W/m 13,1 C 20,9 C 12,9 km/h (3 Bft)
17/08/2018 15:53 21,8 C 21,8 C 21,9 C 20,0 C 57 % 27 cb 1019,0 hPa 0,0 mm 11,3 km/h (2 Bft) O-NO 292 52 min 0,381 mm 1,9 UV-I 142 W/m 12,9 C 20,3 C 17,7 km/h (3 Bft)
17/08/2018 14:53 21,3 C 21,3 C 21,3 C 20,0 C 62 % 25 cb 1019,2 hPa 0,0 mm 9,7 km/h (2 Bft) N-NE 22 60 min 0,381 mm 2,9 UV-I 756 W/m 13,7 C 20,2 C 11,3 km/h (2 Bft)
17/08/2018 13:53 20,7 C 20,7 C 20,7 C 19,4 C 61 % 24 cb 1019,0 hPa 0,0 mm 8,0 km/h (2 Bft) N-NO 337 53 min 0,330 mm 4,8 UV-I 772 W/m 12,9 C 20,1 C 9,7 km/h (2 Bft)
17/08/2018 13:00 19,6 C 19,6 C 19,6 C 18,9 C 70 % 24 cb 1018,9 hPa 0,0 mm 4,8 km/h (1 Bft) N-NE 22 0 min 0,330 mm 5,0 UV-I 893 W/m 14,0 C 19,6 C 6,4 km/h (2 Bft)
_ Min-Heure 06:53 06:53 06:55 05:56 18:12 13:00 17:16 - 20:23 - - - - - - 06:53 06:53 20:24
Minimum _ 8,2 C 8,2 C 8,2 C 8,9 C 51 % 24 cb 1018,7 hPa - 0,0 km/h (0 Bft) - - - - - - 7,4 C 8,2 C 0,0 km/h (0 Bft)
_ Max-Heure 18:23 18:24 18:23 14:11 07:53 09:44 10:30 13:00 13:23 - - 13:00 14:00 13:28 13:01 11:31 18:25 13:47
Maximum _ 22,7 C 22,7 C 22,7 C 20,6 C 98 % 61 cb 1023,2 hPa 0,0 mm 14,5 km/h
N-NE (3 Bft)
- - 1 min 0,381 mm 5,2 UV-I 904 W/m 14,6 C 22,7 C 25,7 km/h
NE (4 Bft)
Moyenne _ 16,2 C 16,2 C 16,2 C 15,5 C 77 % 42 cb 1020,9 hPa #0,0 mm 3,6 km/h (1 Bft) NO - #4:11 h #0,914 mm 2,9 UV-I 162 W/m 11,8 C 16,0 C 5,4 km/h (1 Bft)